sensor_id;sensor_type;location;lat;lon;timestamp;temperature;humidity
37052;DHT22;22964;52.272;13.356;2023-03-05T00:00:11;8.20;61.10
37052;DHT22;22964;52.272;13.356;2023-03-05T00:02:41;8.20;61.10
37052;DHT22;22964;52.272;13.356;2023-03-05T00:05:07;8.20;62.00
37052;DHT22;22964;52.272;13.356;2023-03-05T00:07:33;8.20;61.10
37052;DHT22;22964;52.272;13.356;2023-03-05T00:10:00;8.10;61.10
37052;DHT22;22964;52.272;13.356;2023-03-05T00:12:26;8.10;61.20
37052;DHT22;22964;52.272;13.356;2023-03-05T00:14:52;8.10;61.20
37052;DHT22;22964;52.272;13.356;2023-03-05T00:17:17;8.10;61.30
37052;DHT22;22964;52.272;13.356;2023-03-05T00:19:43;8.10;61.20
37052;DHT22;22964;52.272;13.356;2023-03-05T00:22:09;8.10;61.30
37052;DHT22;22964;52.272;13.356;2023-03-05T00:24:34;8.00;61.40
37052;DHT22;22964;52.272;13.356;2023-03-05T00:27:00;8.10;61.70
37052;DHT22;22964;52.272;13.356;2023-03-05T00:29:26;8.00;61.80
37052;DHT22;22964;52.272;13.356;2023-03-05T00:31:53;8.00;61.80
37052;DHT22;22964;52.272;13.356;2023-03-05T00:34:19;8.10;61.90
37052;DHT22;22964;52.272;13.356;2023-03-05T00:36:50;8.00;61.90
37052;DHT22;22964;52.272;13.356;2023-03-05T00:39:17;8.00;62.00
37052;DHT22;22964;52.272;13.356;2023-03-05T00:41:43;7.90;61.90
37052;DHT22;22964;52.272;13.356;2023-03-05T00:44:10;7.90;61.90
37052;DHT22;22964;52.272;13.356;2023-03-05T00:46:36;7.90;61.90
37052;DHT22;22964;52.272;13.356;2023-03-05T00:49:02;7.90;61.70
37052;DHT22;22964;52.272;13.356;2023-03-05T00:51:28;7.80;61.50
37052;DHT22;22964;52.272;13.356;2023-03-05T00:53:54;7.80;61.50
37052;DHT22;22964;52.272;13.356;2023-03-05T00:56:20;7.80;61.50
37052;DHT22;22964;52.272;13.356;2023-03-05T00:58:46;7.80;61.40
37052;DHT22;22964;52.272;13.356;2023-03-05T01:01:13;7.70;61.30
37052;DHT22;22964;52.272;13.356;2023-03-05T01:03:39;7.70;61.10
37052;DHT22;22964;52.272;13.356;2023-03-05T01:06:07;7.60;60.90
37052;DHT22;22964;52.272;13.356;2023-03-05T01:08:33;7.60;60.80
37052;DHT22;22964;52.272;13.356;2023-03-05T01:11:00;7.60;60.90
37052;DHT22;22964;52.272;13.356;2023-03-05T01:13:26;7.60;61.40
37052;DHT22;22964;52.272;13.356;2023-03-05T01:15:51;7.60;60.40
37052;DHT22;22964;52.272;13.356;2023-03-05T01:18:18;7.60;60.50
37052;DHT22;22964;52.272;13.356;2023-03-05T01:20:44;7.60;60.30
37052;DHT22;22964;52.272;13.356;2023-03-05T01:23:10;7.50;60.20
37052;DHT22;22964;52.272;13.356;2023-03-05T01:25:36;7.50;60.20
37052;DHT22;22964;52.272;13.356;2023-03-05T01:28:02;7.50;59.80
37052;DHT22;22964;52.272;13.356;2023-03-05T01:30:27;7.50;59.80
37052;DHT22;22964;52.272;13.356;2023-03-05T01:32:54;7.50;60.00
37052;DHT22;22964;52.272;13.356;2023-03-05T01:35:22;7.50;59.90
37052;DHT22;22964;52.272;13.356;2023-03-05T01:37:49;7.50;59.90
37052;DHT22;22964;52.272;13.356;2023-03-05T01:40:18;7.50;59.80
37052;DHT22;22964;52.272;13.356;2023-03-05T01:42:46;7.40;59.60
37052;DHT22;22964;52.272;13.356;2023-03-05T01:45:15;7.40;59.40
37052;DHT22;22964;52.272;13.356;2023-03-05T01:47:43;7.40;59.30
37052;DHT22;22964;52.272;13.356;2023-03-05T01:50:12;7.30;58.90
37052;DHT22;22964;52.272;13.356;2023-03-05T01:52:40;7.30;58.90
37052;DHT22;22964;52.272;13.356;2023-03-05T01:55:14;7.30;58.90
37052;DHT22;22964;52.272;13.356;2023-03-05T01:57:47;7.30;58.90
37052;DHT22;22964;52.272;13.356;2023-03-05T02:00:19;7.30;59.00
37052;DHT22;22964;52.272;13.356;2023-03-05T02:02:49;7.20;59.00
37052;DHT22;22964;52.272;13.356;2023-03-05T02:05:28;7.20;58.80
37052;DHT22;22964;52.272;13.356;2023-03-05T02:07:58;7.20;58.50
37052;DHT22;22964;52.272;13.356;2023-03-05T02:12:54;7.20;58.20
37052;DHT22;22964;52.272;13.356;2023-03-05T02:15:20;7.10;58.50
37052;DHT22;22964;52.272;13.356;2023-03-05T02:17:46;7.10;58.50
37052;DHT22;22964;52.272;13.356;2023-03-05T02:20:18;7.10;58.30
37052;DHT22;22964;52.272;13.356;2023-03-05T02:22:44;7.00;57.80
37052;DHT22;22964;52.272;13.356;2023-03-05T02:25:30;7.00;58.30
37052;DHT22;22964;52.272;13.356;2023-03-05T02:28:00;7.00;57.70
37052;DHT22;22964;52.272;13.356;2023-03-05T02:30:27;7.00;58.10
37052;DHT22;22964;52.272;13.356;2023-03-05T02:32:53;7.00;58.00
37052;DHT22;22964;52.272;13.356;2023-03-05T02:35:20;6.90;58.20
37052;DHT22;22964;52.272;13.356;2023-03-05T02:37:46;6.90;58.10
37052;DHT22;22964;52.272;13.356;2023-03-05T02:40:12;6.90;57.90
37052;DHT22;22964;52.272;13.356;2023-03-05T02:42:40;6.90;58.10
37052;DHT22;22964;52.272;13.356;2023-03-05T02:45:07;6.90;58.10
37052;DHT22;22964;52.272;13.356;2023-03-05T02:47:33;6.90;57.90
37052;DHT22;22964;52.272;13.356;2023-03-05T02:49:59;6.90;57.80
37052;DHT22;22964;52.272;13.356;2023-03-05T02:52:25;6.90;57.40
37052;DHT22;22964;52.272;13.356;2023-03-05T02:54:51;6.80;57.70
37052;DHT22;22964;52.272;13.356;2023-03-05T02:57:18;6.90;57.70
37052;DHT22;22964;52.272;13.356;2023-03-05T02:59:45;6.80;57.70
37052;DHT22;22964;52.272;13.356;2023-03-05T03:02:12;6.80;57.90
37052;DHT22;22964;52.272;13.356;2023-03-05T03:04:38;6.80;58.00
37052;DHT22;22964;52.272;13.356;2023-03-05T03:07:04;6.80;57.90
37052;DHT22;22964;52.272;13.356;2023-03-05T03:09:29;6.80;58.20
37052;DHT22;22964;52.272;13.356;2023-03-05T03:11:55;6.80;58.30
37052;DHT22;22964;52.272;13.356;2023-03-05T03:14:21;6.80;58.10
37052;DHT22;22964;52.272;13.356;2023-03-05T03:16:47;6.80;58.20
37052;DHT22;22964;52.272;13.356;2023-03-05T03:19:13;6.80;58.40
37052;DHT22;22964;52.272;13.356;2023-03-05T03:21:39;6.80;58.40
37052;DHT22;22964;52.272;13.356;2023-03-05T03:24:05;6.80;58.40
37052;DHT22;22964;52.272;13.356;2023-03-05T03:26:30;6.80;58.50
37052;DHT22;22964;52.272;13.356;2023-03-05T03:28:56;6.80;58.50
37052;DHT22;22964;52.272;13.356;2023-03-05T03:31:23;6.80;58.40
37052;DHT22;22964;52.272;13.356;2023-03-05T03:33:49;6.80;58.50
37052;DHT22;22964;52.272;13.356;2023-03-05T03:36:15;6.80;58.50
37052;DHT22;22964;52.272;13.356;2023-03-05T03:38:41;6.80;58.50
37052;DHT22;22964;52.272;13.356;2023-03-05T03:41:08;6.80;58.70
37052;DHT22;22964;52.272;13.356;2023-03-05T03:43:35;6.80;59.30
37052;DHT22;22964;52.272;13.356;2023-03-05T03:46:04;6.80;58.70
37052;DHT22;22964;52.272;13.356;2023-03-05T03:48:30;6.80;58.70
37052;DHT22;22964;52.272;13.356;2023-03-05T03:50:56;6.80;58.60
37052;DHT22;22964;52.272;13.356;2023-03-05T03:53:21;6.80;58.60
37052;DHT22;22964;52.272;13.356;2023-03-05T03:55:47;6.80;58.50
37052;DHT22;22964;52.272;13.356;2023-03-05T03:58:13;6.80;58.40
37052;DHT22;22964;52.272;13.356;2023-03-05T04:00:39;6.70;58.40
37052;DHT22;22964;52.272;13.356;2023-03-05T04:03:06;6.70;58.40
37052;DHT22;22964;52.272;13.356;2023-03-05T04:05:32;6.60;58.30
37052;DHT22;22964;52.272;13.356;2023-03-05T04:07:57;6.60;58.50
37052;DHT22;22964;52.272;13.356;2023-03-05T04:10:25;6.60;58.50
37052;DHT22;22964;52.272;13.356;2023-03-05T04:12:51;6.50;58.50
37052;DHT22;22964;52.272;13.356;2023-03-05T04:15:17;6.50;58.60
37052;DHT22;22964;52.272;13.356;2023-03-05T04:17:43;6.50;58.70
37052;DHT22;22964;52.272;13.356;2023-03-05T04:20:09;6.40;58.70
37052;DHT22;22964;52.272;13.356;2023-03-05T04:22:36;6.40;58.80
37052;DHT22;22964;52.272;13.356;2023-03-05T04:25:02;6.40;58.90
37052;DHT22;22964;52.272;13.356;2023-03-05T04:27:33;6.30;58.80
37052;DHT22;22964;52.272;13.356;2023-03-05T04:29:59;6.30;59.00
37052;DHT22;22964;52.272;13.356;2023-03-05T04:32:25;6.20;59.00
37052;DHT22;22964;52.272;13.356;2023-03-05T04:34:52;6.20;59.20
37052;DHT22;22964;52.272;13.356;2023-03-05T04:37:18;6.20;59.30
37052;DHT22;22964;52.272;13.356;2023-03-05T04:39:44;6.20;59.40
37052;DHT22;22964;52.272;13.356;2023-03-05T04:42:09;6.10;59.50
37052;DHT22;22964;52.272;13.356;2023-03-05T04:44:35;6.10;59.60
37052;DHT22;22964;52.272;13.356;2023-03-05T04:47:01;6.00;59.70
37052;DHT22;22964;52.272;13.356;2023-03-05T04:49:28;6.00;59.80
37052;DHT22;22964;52.272;13.356;2023-03-05T04:51:54;6.00;59.90
37052;DHT22;22964;52.272;13.356;2023-03-05T04:54:22;6.00;60.00
37052;DHT22;22964;52.272;13.356;2023-03-05T04:56:48;6.00;60.20
37052;DHT22;22964;52.272;13.356;2023-03-05T04:59:14;5.90;60.30
37052;DHT22;22964;52.272;13.356;2023-03-05T05:01:39;5.90;60.40
37052;DHT22;22964;52.272;13.356;2023-03-05T05:04:05;5.90;61.40
37052;DHT22;22964;52.272;13.356;2023-03-05T05:06:31;5.90;60.70
37052;DHT22;22964;52.272;13.356;2023-03-05T05:08:57;5.90;60.80
37052;DHT22;22964;52.272;13.356;2023-03-05T05:11:22;5.90;60.90
37052;DHT22;22964;52.272;13.356;2023-03-05T05:13:48;5.90;61.10
37052;DHT22;22964;52.272;13.356;2023-03-05T05:16:14;5.90;61.30
37052;DHT22;22964;52.272;13.356;2023-03-05T05:18:40;5.90;61.40
37052;DHT22;22964;52.272;13.356;2023-03-05T05:21:08;5.90;61.60
37052;DHT22;22964;52.272;13.356;2023-03-05T05:23:34;5.90;61.70
37052;DHT22;22964;52.272;13.356;2023-03-05T05:26:02;5.90;61.90
37052;DHT22;22964;52.272;13.356;2023-03-05T05:28:28;5.90;62.10
37052;DHT22;22964;52.272;13.356;2023-03-05T05:30:55;5.90;62.10
37052;DHT22;22964;52.272;13.356;2023-03-05T05:33:21;5.90;62.40
37052;DHT22;22964;52.272;13.356;2023-03-05T05:35:47;5.90;62.50
37052;DHT22;22964;52.272;13.356;2023-03-05T05:38:13;6.00;62.50
37052;DHT22;22964;52.272;13.356;2023-03-05T05:40:39;6.00;62.50
37052;DHT22;22964;52.272;13.356;2023-03-05T05:43:05;6.00;62.60
37052;DHT22;22964;52.272;13.356;2023-03-05T05:45:31;6.00;62.70
37052;DHT22;22964;52.272;13.356;2023-03-05T05:47:57;6.00;62.70
37052;DHT22;22964;52.272;13.356;2023-03-05T05:50:23;6.10;62.70
37052;DHT22;22964;52.272;13.356;2023-03-05T05:52:50;6.10;62.80
37052;DHT22;22964;52.272;13.356;2023-03-05T05:55:16;6.10;62.80
37052;DHT22;22964;52.272;13.356;2023-03-05T05:57:42;6.10;62.90
37052;DHT22;22964;52.272;13.356;2023-03-05T06:00:10;6.20;63.00
37052;DHT22;22964;52.272;13.356;2023-03-05T06:02:41;6.20;63.20
37052;DHT22;22964;52.272;13.356;2023-03-05T06:05:10;6.20;63.20
37052;DHT22;22964;52.272;13.356;2023-03-05T06:07:36;6.20;63.20
37052;DHT22;22964;52.272;13.356;2023-03-05T06:10:03;6.30;63.20
37052;DHT22;22964;52.272;13.356;2023-03-05T06:12:29;6.30;63.10
37052;DHT22;22964;52.272;13.356;2023-03-05T06:14:54;6.30;63.00
37052;DHT22;22964;52.272;13.356;2023-03-05T06:17:20;6.30;62.90
37052;DHT22;22964;52.272;13.356;2023-03-05T06:19:47;6.30;63.00
37052;DHT22;22964;52.272;13.356;2023-03-05T06:22:12;6.40;63.10
37052;DHT22;22964;52.272;13.356;2023-03-05T06:24:38;6.40;63.10
37052;DHT22;22964;52.272;13.356;2023-03-05T06:27:05;6.40;63.20
37052;DHT22;22964;52.272;13.356;2023-03-05T06:29:31;6.40;63.10
37052;DHT22;22964;52.272;13.356;2023-03-05T06:31:56;6.50;63.10
37052;DHT22;22964;52.272;13.356;2023-03-05T06:34:22;6.50;63.20
37052;DHT22;22964;52.272;13.356;2023-03-05T06:36:48;6.50;63.10
37052;DHT22;22964;52.272;13.356;2023-03-05T06:39:14;6.50;63.10
37052;DHT22;22964;52.272;13.356;2023-03-05T06:41:40;6.50;63.20
37052;DHT22;22964;52.272;13.356;2023-03-05T06:44:06;6.50;63.10
37052;DHT22;22964;52.272;13.356;2023-03-05T06:46:34;6.60;63.20
37052;DHT22;22964;52.272;13.356;2023-03-05T06:49:01;6.60;63.10
37052;DHT22;22964;52.272;13.356;2023-03-05T06:51:35;6.60;63.10
37052;DHT22;22964;52.272;13.356;2023-03-05T06:54:13;6.60;63.10
37052;DHT22;22964;52.272;13.356;2023-03-05T06:56:44;6.70;63.10
37052;DHT22;22964;52.272;13.356;2023-03-05T06:59:12;6.70;63.10
37052;DHT22;22964;52.272;13.356;2023-03-05T07:01:38;6.70;63.00
37052;DHT22;22964;52.272;13.356;2023-03-05T07:04:04;6.70;63.00
37052;DHT22;22964;52.272;13.356;2023-03-05T07:06:32;6.80;63.00
37052;DHT22;22964;52.272;13.356;2023-03-05T07:08:58;6.80;63.00
37052;DHT22;22964;52.272;13.356;2023-03-05T07:11:26;6.80;62.90
37052;DHT22;22964;52.272;13.356;2023-03-05T07:13:52;6.80;62.80
37052;DHT22;22964;52.272;13.356;2023-03-05T07:16:21;6.80;62.80
37052;DHT22;22964;52.272;13.356;2023-03-05T07:18:47;6.80;62.80
37052;DHT22;22964;52.272;13.356;2023-03-05T07:21:21;6.90;63.00
37052;DHT22;22964;52.272;13.356;2023-03-05T07:23:48;6.90;62.90
37052;DHT22;22964;52.272;13.356;2023-03-05T07:26:15;6.90;62.80
37052;DHT22;22964;52.272;13.356;2023-03-05T07:28:41;6.90;62.60
37052;DHT22;22964;52.272;13.356;2023-03-05T07:31:14;7.00;62.60
37052;DHT22;22964;52.272;13.356;2023-03-05T07:33:40;7.00;62.40
37052;DHT22;22964;52.272;13.356;2023-03-05T07:36:09;7.00;62.40
37052;DHT22;22964;52.272;13.356;2023-03-05T07:38:36;7.00;62.10
37052;DHT22;22964;52.272;13.356;2023-03-05T07:41:07;7.00;61.80
37052;DHT22;22964;52.272;13.356;2023-03-05T07:43:32;7.10;61.80
37052;DHT22;22964;52.272;13.356;2023-03-05T07:45:58;7.10;61.60
37052;DHT22;22964;52.272;13.356;2023-03-05T07:48:24;7.10;61.60
37052;DHT22;22964;52.272;13.356;2023-03-05T07:51:02;7.10;61.60
37052;DHT22;22964;52.272;13.356;2023-03-05T07:53:28;7.10;61.50
37052;DHT22;22964;52.272;13.356;2023-03-05T07:55:54;7.20;61.50
37052;DHT22;22964;52.272;13.356;2023-03-05T07:58:20;7.20;61.10
37052;DHT22;22964;52.272;13.356;2023-03-05T08:00:46;7.30;61.10
37052;DHT22;22964;52.272;13.356;2023-03-05T08:03:12;7.30;61.00
37052;DHT22;22964;52.272;13.356;2023-03-05T08:05:38;7.30;60.30
37052;DHT22;22964;52.272;13.356;2023-03-05T08:08:05;7.30;60.10
37052;DHT22;22964;52.272;13.356;2023-03-05T08:10:31;7.40;60.30
37052;DHT22;22964;52.272;13.356;2023-03-05T08:12:57;7.40;60.40
37052;DHT22;22964;52.272;13.356;2023-03-05T08:15:23;7.50;60.30
37052;DHT22;22964;52.272;13.356;2023-03-05T08:17:49;7.60;60.10
37052;DHT22;22964;52.272;13.356;2023-03-05T08:20:14;7.60;59.90
37052;DHT22;22964;52.272;13.356;2023-03-05T08:22:40;7.60;59.60
37052;DHT22;22964;52.272;13.356;2023-03-05T08:25:07;7.70;59.30
37052;DHT22;22964;52.272;13.356;2023-03-05T08:27:32;7.70;59.10
37052;DHT22;22964;52.272;13.356;2023-03-05T08:30:00;7.70;59.20
37052;DHT22;22964;52.272;13.356;2023-03-05T08:32:27;7.80;58.90
37052;DHT22;22964;52.272;13.356;2023-03-05T08:34:55;7.80;59.70
37052;DHT22;22964;52.272;13.356;2023-03-05T08:37:23;7.90;58.80
37052;DHT22;22964;52.272;13.356;2023-03-05T08:39:49;8.00;59.20
37052;DHT22;22964;52.272;13.356;2023-03-05T08:42:15;8.10;58.50
37052;DHT22;22964;52.272;13.356;2023-03-05T08:44:40;8.20;58.10
37052;DHT22;22964;52.272;13.356;2023-03-05T08:47:06;8.20;57.90
37052;DHT22;22964;52.272;13.356;2023-03-05T08:49:32;8.30;57.40
37052;DHT22;22964;52.272;13.356;2023-03-05T08:51:58;8.40;57.20
37052;DHT22;22964;52.272;13.356;2023-03-05T08:54:23;8.50;56.40
37052;DHT22;22964;52.272;13.356;2023-03-05T08:56:49;8.50;56.40
37052;DHT22;22964;52.272;13.356;2023-03-05T08:59:15;8.60;56.50
37052;DHT22;22964;52.272;13.356;2023-03-05T09:01:40;8.60;56.60
37052;DHT22;22964;52.272;13.356;2023-03-05T09:04:06;8.60;56.20
37052;DHT22;22964;52.272;13.356;2023-03-05T09:06:32;8.70;55.70
37052;DHT22;22964;52.272;13.356;2023-03-05T09:08:59;8.70;56.10
37052;DHT22;22964;52.272;13.356;2023-03-05T09:11:25;8.70;55.80
37052;DHT22;22964;52.272;13.356;2023-03-05T09:13:50;8.80;56.00
37052;DHT22;22964;52.272;13.356;2023-03-05T09:16:18;8.80;55.70
37052;DHT22;22964;52.272;13.356;2023-03-05T09:18:44;8.80;55.60
37052;DHT22;22964;52.272;13.356;2023-03-05T09:21:12;8.90;55.50
37052;DHT22;22964;52.272;13.356;2023-03-05T09:23:39;8.90;55.10
37052;DHT22;22964;52.272;13.356;2023-03-05T09:26:09;8.80;54.60
37052;DHT22;22964;52.272;13.356;2023-03-05T09:28:37;8.90;54.70
37052;DHT22;22964;52.272;13.356;2023-03-05T09:31:04;8.90;54.70
37052;DHT22;22964;52.272;13.356;2023-03-05T09:33:31;8.90;54.90
37052;DHT22;22964;52.272;13.356;2023-03-05T09:35:58;8.90;54.50
37052;DHT22;22964;52.272;13.356;2023-03-05T09:38:23;8.90;54.30
37052;DHT22;22964;52.272;13.356;2023-03-05T09:41:03;8.90;54.20
37052;DHT22;22964;52.272;13.356;2023-03-05T09:43:58;8.90;53.90
37052;DHT22;22964;52.272;13.356;2023-03-05T09:46:54;8.90;54.30
37052;DHT22;22964;52.272;13.356;2023-03-05T09:49:50;9.00;54.10
37052;DHT22;22964;52.272;13.356;2023-03-05T09:52:22;9.10;54.10
37052;DHT22;22964;52.272;13.356;2023-03-05T09:54:54;9.20;54.70
37052;DHT22;22964;52.272;13.356;2023-03-05T09:57:41;9.20;54.00
37052;DHT22;22964;52.272;13.356;2023-03-05T10:00:35;9.30;53.30
37052;DHT22;22964;52.272;13.356;2023-03-05T10:03:08;9.40;53.50
37052;DHT22;22964;52.272;13.356;2023-03-05T10:05:57;9.50;54.00
37052;DHT22;22964;52.272;13.356;2023-03-05T10:08:31;9.60;54.00
37052;DHT22;22964;52.272;13.356;2023-03-05T10:10:58;9.60;54.40
37052;DHT22;22964;52.272;13.356;2023-03-05T10:13:33;9.70;53.90
37052;DHT22;22964;52.272;13.356;2023-03-05T10:33:28;9.60;53.30
37052;DHT22;22964;52.272;13.356;2023-03-05T10:36:04;9.60;53.40
37052;DHT22;22964;52.272;13.356;2023-03-05T10:41:41;9.60;53.60
37052;DHT22;22964;52.272;13.356;2023-03-05T10:44:30;9.60;54.20
37052;DHT22;22964;52.272;13.356;2023-03-05T10:46:58;9.60;53.90
37052;DHT22;22964;52.272;13.356;2023-03-05T10:49:31;9.60;53.70
37052;DHT22;22964;52.272;13.356;2023-03-05T10:52:12;9.60;53.20
37052;DHT22;22964;52.272;13.356;2023-03-05T10:54:40;9.60;53.60
37052;DHT22;22964;52.272;13.356;2023-03-05T10:57:17;9.60;53.30
37052;DHT22;22964;52.272;13.356;2023-03-05T10:59:48;9.60;53.10
37052;DHT22;22964;52.272;13.356;2023-03-05T11:02:14;9.60;53.40
37052;DHT22;22964;52.272;13.356;2023-03-05T11:04:40;9.50;53.00
37052;DHT22;22964;52.272;13.356;2023-03-05T11:12:29;9.60;53.60
37052;DHT22;22964;52.272;13.356;2023-03-05T11:17:42;9.60;53.20
37052;DHT22;22964;52.272;13.356;2023-03-05T11:23:09;9.70;52.70
37052;DHT22;22964;52.272;13.356;2023-03-05T11:25:57;9.80;52.40
37052;DHT22;22964;52.272;13.356;2023-03-05T11:28:35;9.90;53.00
37052;DHT22;22964;52.272;13.356;2023-03-05T11:33:32;10.00;53.00
37052;DHT22;22964;52.272;13.356;2023-03-05T11:36:34;10.00;52.90
37052;DHT22;22964;52.272;13.356;2023-03-05T11:41:42;10.10;51.60
37052;DHT22;22964;52.272;13.356;2023-03-05T11:44:18;10.10;51.80
37052;DHT22;22964;52.272;13.356;2023-03-05T11:46:52;10.10;51.70
37052;DHT22;22964;52.272;13.356;2023-03-05T11:49:25;10.10;52.20
37052;DHT22;22964;52.272;13.356;2023-03-05T11:52:05;10.00;51.90
37052;DHT22;22964;52.272;13.356;2023-03-05T11:54:51;10.00;51.60
37052;DHT22;22964;52.272;13.356;2023-03-05T11:57:20;10.00;51.60
37052;DHT22;22964;52.272;13.356;2023-03-05T11:59:48;10.00;51.70
37052;DHT22;22964;52.272;13.356;2023-03-05T12:02:23;9.90;52.00
37052;DHT22;22964;52.272;13.356;2023-03-05T12:04:50;9.90;51.90
37052;DHT22;22964;52.272;13.356;2023-03-05T12:07:25;10.00;52.10
37052;DHT22;22964;52.272;13.356;2023-03-05T12:09:53;9.90;51.60
37052;DHT22;22964;52.272;13.356;2023-03-05T12:12:36;10.00;51.90
37052;DHT22;22964;52.272;13.356;2023-03-05T12:18:17;9.90;51.50
37052;DHT22;22964;52.272;13.356;2023-03-05T12:23:16;9.90;52.20
37052;DHT22;22964;52.272;13.356;2023-03-05T12:25:51;9.80;52.20
37052;DHT22;22964;52.272;13.356;2023-03-05T12:31:27;9.80;50.90
37052;DHT22;22964;52.272;13.356;2023-03-05T12:33:53;9.90;51.30
37052;DHT22;22964;52.272;13.356;2023-03-05T12:38:52;9.90;51.80
37052;DHT22;22964;52.272;13.356;2023-03-05T12:51:46;10.00;52.00
37052;DHT22;22964;52.272;13.356;2023-03-05T12:54:41;10.00;51.90
37052;DHT22;22964;52.272;13.356;2023-03-05T12:57:20;10.10;51.40
37052;DHT22;22964;52.272;13.356;2023-03-05T12:59:58;10.10;51.60
37052;DHT22;22964;52.272;13.356;2023-03-05T13:02:38;10.20;51.80
37052;DHT22;22964;52.272;13.356;2023-03-05T13:05:28;10.20;51.40
37052;DHT22;22964;52.272;13.356;2023-03-05T13:08:14;10.30;50.80
37052;DHT22;22964;52.272;13.356;2023-03-05T13:13:18;10.30;51.00
37052;DHT22;22964;52.272;13.356;2023-03-05T13:15:46;10.30;51.00
37052;DHT22;22964;52.272;13.356;2023-03-05T13:18:19;10.30;51.30
37052;DHT22;22964;52.272;13.356;2023-03-05T13:20:44;10.20;50.30
37052;DHT22;22964;52.272;13.356;2023-03-05T13:23:25;10.20;51.10
37052;DHT22;22964;52.272;13.356;2023-03-05T13:26:13;10.10;50.90
37052;DHT22;22964;52.272;13.356;2023-03-05T13:28:41;10.10;51.20
37052;DHT22;22964;52.272;13.356;2023-03-05T13:31:18;10.10;52.00
37052;DHT22;22964;52.272;13.356;2023-03-05T13:33:51;10.00;52.60
37052;DHT22;22964;52.272;13.356;2023-03-05T13:36:19;10.10;53.10
37052;DHT22;22964;52.272;13.356;2023-03-05T13:38:46;10.10;53.70
37052;DHT22;22964;52.272;13.356;2023-03-05T13:43:51;10.10;54.30
37052;DHT22;22964;52.272;13.356;2023-03-05T13:46:35;10.10;54.40
37052;DHT22;22964;52.272;13.356;2023-03-05T13:49:23;10.10;54.40
37052;DHT22;22964;52.272;13.356;2023-03-05T13:51:55;10.10;54.50
37052;DHT22;22964;52.272;13.356;2023-03-05T13:54:24;10.10;54.50
37052;DHT22;22964;52.272;13.356;2023-03-05T13:56:54;10.10;54.60
37052;DHT22;22964;52.272;13.356;2023-03-05T13:59:32;10.10;54.60
37052;DHT22;22964;52.272;13.356;2023-03-05T14:02:18;10.10;54.70
37052;DHT22;22964;52.272;13.356;2023-03-05T14:04:45;10.10;54.30
37052;DHT22;22964;52.272;13.356;2023-03-05T14:09:50;10.00;54.00
37052;DHT22;22964;52.272;13.356;2023-03-05T14:12:35;10.00;54.20
37052;DHT22;22964;52.272;13.356;2023-03-05T14:15:26;9.90;54.10
37052;DHT22;22964;52.272;13.356;2023-03-05T14:18:07;9.90;54.10
37052;DHT22;22964;52.272;13.356;2023-03-05T14:20:33;9.80;54.90
37052;DHT22;22964;52.272;13.356;2023-03-05T14:23:00;9.70;54.30
37052;DHT22;22964;52.272;13.356;2023-03-05T14:25:37;9.60;54.50
37052;DHT22;22964;52.272;13.356;2023-03-05T14:28:26;9.50;54.90
37052;DHT22;22964;52.272;13.356;2023-03-05T14:30:54;9.40;55.30
37052;DHT22;22964;52.272;13.356;2023-03-05T14:33:26;9.30;55.40
37052;DHT22;22964;52.272;13.356;2023-03-05T14:35:53;9.10;55.90
37052;DHT22;22964;52.272;13.356;2023-03-05T14:38:28;9.00;56.20
37052;DHT22;22964;52.272;13.356;2023-03-05T14:40:55;8.90;56.90
37052;DHT22;22964;52.272;13.356;2023-03-05T14:43:20;8.90;57.20
37052;DHT22;22964;52.272;13.356;2023-03-05T14:45:46;8.90;57.50
37052;DHT22;22964;52.272;13.356;2023-03-05T14:48:15;8.90;57.60
37052;DHT22;22964;52.272;13.356;2023-03-05T14:50:44;8.90;57.70
37052;DHT22;22964;52.272;13.356;2023-03-05T14:53:21;8.90;57.70
37052;DHT22;22964;52.272;13.356;2023-03-05T14:55:51;8.80;57.90
37052;DHT22;22964;52.272;13.356;2023-03-05T14:58:25;8.90;57.80
37052;DHT22;22964;52.272;13.356;2023-03-05T15:00:52;8.90;57.60
37052;DHT22;22964;52.272;13.356;2023-03-05T15:03:20;8.90;57.60
37052;DHT22;22964;52.272;13.356;2023-03-05T15:05:48;8.90;57.70
37052;DHT22;22964;52.272;13.356;2023-03-05T15:08:24;8.90;57.50
37052;DHT22;22964;52.272;13.356;2023-03-05T15:10:51;8.90;57.40
37052;DHT22;22964;52.272;13.356;2023-03-05T15:13:17;8.90;57.40
37052;DHT22;22964;52.272;13.356;2023-03-05T15:15:44;9.00;57.20
37052;DHT22;22964;52.272;13.356;2023-03-05T15:18:15;8.90;57.20
37052;DHT22;22964;52.272;13.356;2023-03-05T15:20:41;9.00;57.20
37052;DHT22;22964;52.272;13.356;2023-03-05T15:23:08;8.90;57.20
37052;DHT22;22964;52.272;13.356;2023-03-05T15:25:33;8.90;57.10
37052;DHT22;22964;52.272;13.356;2023-03-05T15:27:59;8.90;57.10
37052;DHT22;22964;52.272;13.356;2023-03-05T15:30:36;8.90;57.20
37052;DHT22;22964;52.272;13.356;2023-03-05T15:33:07;8.80;57.10
37052;DHT22;22964;52.272;13.356;2023-03-05T15:35:33;8.80;57.10
37052;DHT22;22964;52.272;13.356;2023-03-05T15:37:59;8.70;57.20
37052;DHT22;22964;52.272;13.356;2023-03-05T15:40:25;8.70;57.20
37052;DHT22;22964;52.272;13.356;2023-03-05T15:42:53;8.70;57.10
37052;DHT22;22964;52.272;13.356;2023-03-05T15:45:19;8.70;57.00
37052;DHT22;22964;52.272;13.356;2023-03-05T15:47:47;8.60;56.90
37052;DHT22;22964;52.272;13.356;2023-03-05T15:50:13;8.50;56.90
37052;DHT22;22964;52.272;13.356;2023-03-05T15:52:39;8.50;56.90
37052;DHT22;22964;52.272;13.356;2023-03-05T15:55:05;8.50;56.70
37052;DHT22;22964;52.272;13.356;2023-03-05T15:57:36;8.40;56.90
37052;DHT22;22964;52.272;13.356;2023-03-05T16:00:05;8.30;56.80
37052;DHT22;22964;52.272;13.356;2023-03-05T16:02:35;8.30;57.00
37052;DHT22;22964;52.272;13.356;2023-03-05T16:05:01;8.20;57.10
37052;DHT22;22964;52.272;13.356;2023-03-05T16:07:28;8.10;57.20
37052;DHT22;22964;52.272;13.356;2023-03-05T16:09:53;8.00;57.40
37052;DHT22;22964;52.272;13.356;2023-03-05T16:12:24;7.90;57.60
37052;DHT22;22964;52.272;13.356;2023-03-05T16:14:51;7.90;58.00
37052;DHT22;22964;52.272;13.356;2023-03-05T16:17:18;7.80;58.10
37052;DHT22;22964;52.272;13.356;2023-03-05T16:19:48;7.70;58.30
37052;DHT22;22964;52.272;13.356;2023-03-05T16:22:14;7.70;58.40
37052;DHT22;22964;52.272;13.356;2023-03-05T16:24:40;7.60;58.70
37052;DHT22;22964;52.272;13.356;2023-03-05T16:27:07;7.60;59.00
37052;DHT22;22964;52.272;13.356;2023-03-05T16:29:32;7.50;59.10
37052;DHT22;22964;52.272;13.356;2023-03-05T16:32:00;7.50;59.20
37052;DHT22;22964;52.272;13.356;2023-03-05T16:34:27;7.50;59.40
37052;DHT22;22964;52.272;13.356;2023-03-05T16:36:53;7.40;59.60
37052;DHT22;22964;52.272;13.356;2023-03-05T16:39:19;7.40;59.60
37052;DHT22;22964;52.272;13.356;2023-03-05T16:41:45;7.40;59.70
37052;DHT22;22964;52.272;13.356;2023-03-05T16:44:11;7.30;59.80
37052;DHT22;22964;52.272;13.356;2023-03-05T16:46:37;7.30;59.90
37052;DHT22;22964;52.272;13.356;2023-03-05T16:49:05;7.30;60.00